sensor_id;sensor_type;location;lat;lon;timestamp;temperature;humidity
16247;DHT22;8231;50.866;7.944;2022-12-29T00:00:09;9.30;99.90
16247;DHT22;8231;50.866;7.944;2022-12-29T00:02:42;9.40;99.90
16247;DHT22;8231;50.866;7.944;2022-12-29T00:05:10;9.30;99.90
16247;DHT22;8231;50.866;7.944;2022-12-29T00:07:38;9.30;99.90
16247;DHT22;8231;50.866;7.944;2022-12-29T00:10:07;9.30;99.90
16247;DHT22;8231;50.866;7.944;2022-12-29T00:12:35;9.30;99.90
16247;DHT22;8231;50.866;7.944;2022-12-29T00:15:20;9.50;99.90
16247;DHT22;8231;50.866;7.944;2022-12-29T00:18:08;9.40;99.90
16247;DHT22;8231;50.866;7.944;2022-12-29T00:20:36;9.40;99.90
16247;DHT22;8231;50.866;7.944;2022-12-29T00:23:22;9.40;99.90
16247;DHT22;8231;50.866;7.944;2022-12-29T00:26:14;9.40;99.90
16247;DHT22;8231;50.866;7.944;2022-12-29T00:29:02;9.50;99.90
16247;DHT22;8231;50.866;7.944;2022-12-29T00:31:47;9.40;99.90
16247;DHT22;8231;50.866;7.944;2022-12-29T00:34:34;9.40;99.90
16247;DHT22;8231;50.866;7.944;2022-12-29T00:37:20;9.50;99.90
16247;DHT22;8231;50.866;7.944;2022-12-29T00:40:09;9.50;99.90
16247;DHT22;8231;50.866;7.944;2022-12-29T00:42:54;9.50;99.90
16247;DHT22;8231;50.866;7.944;2022-12-29T00:45:40;9.50;99.90
16247;DHT22;8231;50.866;7.944;2022-12-29T00:48:08;9.60;99.90
16247;DHT22;8231;50.866;7.944;2022-12-29T00:50:37;9.60;99.90
16247;DHT22;8231;50.866;7.944;2022-12-29T00:53:04;9.60;99.90
16247;DHT22;8231;50.866;7.944;2022-12-29T00:55:36;9.50;99.90
16247;DHT22;8231;50.866;7.944;2022-12-29T00:58:04;9.50;99.90
16247;DHT22;8231;50.866;7.944;2022-12-29T01:00:33;9.50;99.90
16247;DHT22;8231;50.866;7.944;2022-12-29T01:03:01;9.50;99.90
16247;DHT22;8231;50.866;7.944;2022-12-29T01:05:29;9.50;99.90
16247;DHT22;8231;50.866;7.944;2022-12-29T01:07:58;9.60;99.90
16247;DHT22;8231;50.866;7.944;2022-12-29T01:10:26;9.50;99.90
16247;DHT22;8231;50.866;7.944;2022-12-29T01:12:54;9.50;99.90
16247;DHT22;8231;50.866;7.944;2022-12-29T01:15:22;9.60;99.90
16247;DHT22;8231;50.866;7.944;2022-12-29T01:17:50;9.60;99.90
16247;DHT22;8231;50.866;7.944;2022-12-29T01:20:18;9.60;99.90
16247;DHT22;8231;50.866;7.944;2022-12-29T01:22:46;9.70;99.90
16247;DHT22;8231;50.866;7.944;2022-12-29T01:25:20;9.60;99.90
16247;DHT22;8231;50.866;7.944;2022-12-29T01:27:48;9.60;99.90
16247;DHT22;8231;50.866;7.944;2022-12-29T01:30:16;9.60;99.90
16247;DHT22;8231;50.866;7.944;2022-12-29T01:32:44;9.60;99.90
16247;DHT22;8231;50.866;7.944;2022-12-29T01:35:12;9.60;99.90
16247;DHT22;8231;50.866;7.944;2022-12-29T01:37:40;9.60;99.90
16247;DHT22;8231;50.866;7.944;2022-12-29T01:40:09;9.60;99.90
16247;DHT22;8231;50.866;7.944;2022-12-29T01:42:39;9.70;99.90
16247;DHT22;8231;50.866;7.944;2022-12-29T01:45:09;9.70;99.90
16247;DHT22;8231;50.866;7.944;2022-12-29T01:47:41;9.70;99.90
16247;DHT22;8231;50.866;7.944;2022-12-29T01:50:14;9.80;99.90
16247;DHT22;8231;50.866;7.944;2022-12-29T01:52:49;9.80;99.90
16247;DHT22;8231;50.866;7.944;2022-12-29T01:55:19;9.80;99.90
16247;DHT22;8231;50.866;7.944;2022-12-29T01:57:51;9.80;99.90
16247;DHT22;8231;50.866;7.944;2022-12-29T02:00:20;9.70;99.90
16247;DHT22;8231;50.866;7.944;2022-12-29T02:02:51;9.80;99.90
16247;DHT22;8231;50.866;7.944;2022-12-29T02:05:24;9.80;99.90
16247;DHT22;8231;50.866;7.944;2022-12-29T02:07:55;9.80;99.90
16247;DHT22;8231;50.866;7.944;2022-12-29T02:10:26;9.80;99.90
16247;DHT22;8231;50.866;7.944;2022-12-29T02:12:57;9.80;99.90
16247;DHT22;8231;50.866;7.944;2022-12-29T02:15:34;9.80;99.90
16247;DHT22;8231;50.866;7.944;2022-12-29T02:18:15;9.70;99.90
16247;DHT22;8231;50.866;7.944;2022-12-29T02:21:10;9.70;99.90
16247;DHT22;8231;50.866;7.944;2022-12-29T02:24:04;9.60;99.90
16247;DHT22;8231;50.866;7.944;2022-12-29T02:26:49;9.60;99.90
16247;DHT22;8231;50.866;7.944;2022-12-29T02:29:43;9.70;99.90
16247;DHT22;8231;50.866;7.944;2022-12-29T02:32:21;9.70;99.90
16247;DHT22;8231;50.866;7.944;2022-12-29T02:34:58;9.70;99.90
16247;DHT22;8231;50.866;7.944;2022-12-29T02:37:37;9.90;99.90
16247;DHT22;8231;50.866;7.944;2022-12-29T02:40:15;9.70;99.90
16247;DHT22;8231;50.866;7.944;2022-12-29T02:42:50;9.80;99.90
16247;DHT22;8231;50.866;7.944;2022-12-29T02:45:22;9.70;99.90
16247;DHT22;8231;50.866;7.944;2022-12-29T02:48:00;9.70;99.90
16247;DHT22;8231;50.866;7.944;2022-12-29T02:50:35;9.80;99.90
16247;DHT22;8231;50.866;7.944;2022-12-29T02:53:08;9.70;99.90
16247;DHT22;8231;50.866;7.944;2022-12-29T02:55:37;9.70;99.90
16247;DHT22;8231;50.866;7.944;2022-12-29T02:58:17;9.60;99.90
16247;DHT22;8231;50.866;7.944;2022-12-29T03:01:01;9.60;99.90
16247;DHT22;8231;50.866;7.944;2022-12-29T03:03:42;9.50;99.90
16247;DHT22;8231;50.866;7.944;2022-12-29T03:06:27;9.50;99.90
16247;DHT22;8231;50.866;7.944;2022-12-29T03:09:05;9.50;99.90
16247;DHT22;8231;50.866;7.944;2022-12-29T03:11:51;9.40;99.90
16247;DHT22;8231;50.866;7.944;2022-12-29T03:14:44;9.40;99.90
16247;DHT22;8231;50.866;7.944;2022-12-29T03:17:40;9.50;99.90
16247;DHT22;8231;50.866;7.944;2022-12-29T03:20:17;9.50;99.90
16247;DHT22;8231;50.866;7.944;2022-12-29T03:22:49;9.40;99.90
16247;DHT22;8231;50.866;7.944;2022-12-29T03:25:25;9.40;99.90
16247;DHT22;8231;50.866;7.944;2022-12-29T03:27:58;9.50;99.90
16247;DHT22;8231;50.866;7.944;2022-12-29T03:30:31;9.40;99.90
16247;DHT22;8231;50.866;7.944;2022-12-29T03:33:04;9.50;99.90
16247;DHT22;8231;50.866;7.944;2022-12-29T03:35:36;9.50;99.90
16247;DHT22;8231;50.866;7.944;2022-12-29T03:38:14;9.50;99.90
16247;DHT22;8231;50.866;7.944;2022-12-29T03:40:48;9.50;99.90
16247;DHT22;8231;50.866;7.944;2022-12-29T03:43:17;9.50;99.90
16247;DHT22;8231;50.866;7.944;2022-12-29T03:45:46;9.50;99.90
16247;DHT22;8231;50.866;7.944;2022-12-29T03:48:15;9.60;99.90
16247;DHT22;8231;50.866;7.944;2022-12-29T03:50:45;9.60;99.90
16247;DHT22;8231;50.866;7.944;2022-12-29T03:53:14;9.60;99.90
16247;DHT22;8231;50.866;7.944;2022-12-29T03:55:42;9.60;99.90
16247;DHT22;8231;50.866;7.944;2022-12-29T03:58:11;9.50;99.90
16247;DHT22;8231;50.866;7.944;2022-12-29T04:00:51;9.60;99.90
16247;DHT22;8231;50.866;7.944;2022-12-29T04:03:19;9.60;99.90
16247;DHT22;8231;50.866;7.944;2022-12-29T04:05:48;9.60;99.90
16247;DHT22;8231;50.866;7.944;2022-12-29T04:08:17;9.50;99.90
16247;DHT22;8231;50.866;7.944;2022-12-29T04:10:45;9.50;99.90
16247;DHT22;8231;50.866;7.944;2022-12-29T04:13:15;9.60;99.90
16247;DHT22;8231;50.866;7.944;2022-12-29T04:15:44;9.60;99.90
16247;DHT22;8231;50.866;7.944;2022-12-29T04:18:13;9.50;99.90
16247;DHT22;8231;50.866;7.944;2022-12-29T04:20:44;9.50;99.90
16247;DHT22;8231;50.866;7.944;2022-12-29T04:23:34;9.50;99.90
16247;DHT22;8231;50.866;7.944;2022-12-29T04:26:04;9.50;99.90
16247;DHT22;8231;50.866;7.944;2022-12-29T04:28:38;9.50;99.90
16247;DHT22;8231;50.866;7.944;2022-12-29T04:31:29;9.60;99.90
16247;DHT22;8231;50.866;7.944;2022-12-29T04:33:58;9.50;99.90
16247;DHT22;8231;50.866;7.944;2022-12-29T04:36:27;9.70;99.90
16247;DHT22;8231;50.866;7.944;2022-12-29T04:38:58;9.70;99.90
16247;DHT22;8231;50.866;7.944;2022-12-29T04:41:26;9.60;99.90
16247;DHT22;8231;50.866;7.944;2022-12-29T04:43:54;9.60;99.90
16247;DHT22;8231;50.866;7.944;2022-12-29T04:46:31;9.60;99.90
16247;DHT22;8231;50.866;7.944;2022-12-29T04:49:04;9.60;99.90
16247;DHT22;8231;50.866;7.944;2022-12-29T04:52:02;9.50;99.90
16247;DHT22;8231;50.866;7.944;2022-12-29T04:54:32;9.50;99.90
16247;DHT22;8231;50.866;7.944;2022-12-29T04:57:11;9.50;99.90
16247;DHT22;8231;50.866;7.944;2022-12-29T04:59:40;9.60;99.90
16247;DHT22;8231;50.866;7.944;2022-12-29T05:02:08;9.60;99.90
16247;DHT22;8231;50.866;7.944;2022-12-29T05:04:37;9.60;99.90
16247;DHT22;8231;50.866;7.944;2022-12-29T05:07:05;9.60;99.90
16247;DHT22;8231;50.866;7.944;2022-12-29T05:09:35;9.50;99.90
16247;DHT22;8231;50.866;7.944;2022-12-29T05:12:03;9.60;99.90
16247;DHT22;8231;50.866;7.944;2022-12-29T05:14:33;9.50;99.90
16247;DHT22;8231;50.866;7.944;2022-12-29T05:17:02;9.50;99.90
16247;DHT22;8231;50.866;7.944;2022-12-29T05:19:30;9.70;99.90
16247;DHT22;8231;50.866;7.944;2022-12-29T05:21:59;9.60;99.90
16247;DHT22;8231;50.866;7.944;2022-12-29T05:24:28;9.70;99.90
16247;DHT22;8231;50.866;7.944;2022-12-29T05:26:58;9.60;99.90
16247;DHT22;8231;50.866;7.944;2022-12-29T05:29:34;9.60;99.90
16247;DHT22;8231;50.866;7.944;2022-12-29T05:32:02;9.60;99.90
16247;DHT22;8231;50.866;7.944;2022-12-29T05:34:30;9.60;99.90
16247;DHT22;8231;50.866;7.944;2022-12-29T05:36:59;9.60;99.90
16247;DHT22;8231;50.866;7.944;2022-12-29T05:39:28;9.60;99.90
16247;DHT22;8231;50.866;7.944;2022-12-29T05:42:00;9.50;99.90
16247;DHT22;8231;50.866;7.944;2022-12-29T05:44:58;9.50;99.90
16247;DHT22;8231;50.866;7.944;2022-12-29T05:47:52;9.50;99.90
16247;DHT22;8231;50.866;7.944;2022-12-29T05:50:49;9.40;99.90
16247;DHT22;8231;50.866;7.944;2022-12-29T05:53:23;9.40;99.90
16247;DHT22;8231;50.866;7.944;2022-12-29T05:55:52;9.30;99.90
16247;DHT22;8231;50.866;7.944;2022-12-29T05:58:21;9.30;99.90
16247;DHT22;8231;50.866;7.944;2022-12-29T06:00:50;9.30;99.90
16247;DHT22;8231;50.866;7.944;2022-12-29T06:03:19;9.30;99.90
16247;DHT22;8231;50.866;7.944;2022-12-29T06:05:47;9.40;99.90
16247;DHT22;8231;50.866;7.944;2022-12-29T06:08:16;9.30;99.90
16247;DHT22;8231;50.866;7.944;2022-12-29T06:10:44;9.30;99.90
16247;DHT22;8231;50.866;7.944;2022-12-29T06:13:13;9.30;99.90
16247;DHT22;8231;50.866;7.944;2022-12-29T06:15:44;9.30;99.90
16247;DHT22;8231;50.866;7.944;2022-12-29T06:18:12;9.30;99.90
16247;DHT22;8231;50.866;7.944;2022-12-29T06:20:46;9.30;99.90
16247;DHT22;8231;50.866;7.944;2022-12-29T06:23:16;9.40;99.90
16247;DHT22;8231;50.866;7.944;2022-12-29T06:25:47;9.50;99.90
16247;DHT22;8231;50.866;7.944;2022-12-29T06:28:16;9.30;99.90
16247;DHT22;8231;50.866;7.944;2022-12-29T06:30:46;9.40;99.90
16247;DHT22;8231;50.866;7.944;2022-12-29T06:33:16;9.40;99.90
16247;DHT22;8231;50.866;7.944;2022-12-29T06:35:45;9.50;99.90
16247;DHT22;8231;50.866;7.944;2022-12-29T06:38:14;9.40;99.90
16247;DHT22;8231;50.866;7.944;2022-12-29T06:40:42;9.50;99.90
16247;DHT22;8231;50.866;7.944;2022-12-29T06:43:44;9.40;99.90
16247;DHT22;8231;50.866;7.944;2022-12-29T06:46:37;9.40;99.90
16247;DHT22;8231;50.866;7.944;2022-12-29T06:49:05;9.40;99.90
16247;DHT22;8231;50.866;7.944;2022-12-29T06:51:33;9.40;99.90
16247;DHT22;8231;50.866;7.944;2022-12-29T06:54:01;9.30;99.90
16247;DHT22;8231;50.866;7.944;2022-12-29T06:56:29;9.30;99.90
16247;DHT22;8231;50.866;7.944;2022-12-29T06:58:57;9.40;99.90
16247;DHT22;8231;50.866;7.944;2022-12-29T07:01:27;9.40;99.90
16247;DHT22;8231;50.866;7.944;2022-12-29T07:03:56;9.30;99.90
16247;DHT22;8231;50.866;7.944;2022-12-29T07:06:24;9.40;99.90
16247;DHT22;8231;50.866;7.944;2022-12-29T07:08:52;9.40;99.90
16247;DHT22;8231;50.866;7.944;2022-12-29T07:11:21;9.50;99.90
16247;DHT22;8231;50.866;7.944;2022-12-29T07:13:50;9.40;99.90
16247;DHT22;8231;50.866;7.944;2022-12-29T07:16:18;9.40;99.90
16247;DHT22;8231;50.866;7.944;2022-12-29T07:18:47;9.40;99.90
16247;DHT22;8231;50.866;7.944;2022-12-29T07:21:16;9.40;99.90
16247;DHT22;8231;50.866;7.944;2022-12-29T07:23:44;9.40;99.90
16247;DHT22;8231;50.866;7.944;2022-12-29T07:26:14;9.30;99.90
16247;DHT22;8231;50.866;7.944;2022-12-29T07:28:44;9.40;99.90
16247;DHT22;8231;50.866;7.944;2022-12-29T07:31:14;9.40;99.90
16247;DHT22;8231;50.866;7.944;2022-12-29T07:33:43;9.50;99.90
16247;DHT22;8231;50.866;7.944;2022-12-29T07:36:12;9.40;99.90
16247;DHT22;8231;50.866;7.944;2022-12-29T07:38:42;9.50;99.90
16247;DHT22;8231;50.866;7.944;2022-12-29T07:41:10;9.40;99.90
16247;DHT22;8231;50.866;7.944;2022-12-29T07:43:38;9.40;99.90
16247;DHT22;8231;50.866;7.944;2022-12-29T07:46:33;9.40;99.90
16247;DHT22;8231;50.866;7.944;2022-12-29T07:49:21;9.40;99.90
16247;DHT22;8231;50.866;7.944;2022-12-29T07:51:49;9.40;99.90
16247;DHT22;8231;50.866;7.944;2022-12-29T07:54:19;9.40;99.90
16247;DHT22;8231;50.866;7.944;2022-12-29T07:56:47;9.30;99.90
16247;DHT22;8231;50.866;7.944;2022-12-29T07:59:15;9.30;99.90
16247;DHT22;8231;50.866;7.944;2022-12-29T08:01:43;9.40;99.90
16247;DHT22;8231;50.866;7.944;2022-12-29T08:04:11;9.30;99.90
16247;DHT22;8231;50.866;7.944;2022-12-29T08:06:39;9.30;99.90
16247;DHT22;8231;50.866;7.944;2022-12-29T08:09:08;9.30;99.90
16247;DHT22;8231;50.866;7.944;2022-12-29T08:11:45;9.30;99.90
16247;DHT22;8231;50.866;7.944;2022-12-29T08:14:13;9.30;99.90
16247;DHT22;8231;50.866;7.944;2022-12-29T08:16:41;9.20;99.90
16247;DHT22;8231;50.866;7.944;2022-12-29T08:19:10;9.20;99.90
16247;DHT22;8231;50.866;7.944;2022-12-29T08:21:38;9.40;99.90
16247;DHT22;8231;50.866;7.944;2022-12-29T08:24:07;9.30;99.90
16247;DHT22;8231;50.866;7.944;2022-12-29T08:26:36;9.30;99.90
16247;DHT22;8231;50.866;7.944;2022-12-29T08:29:05;9.30;99.90
16247;DHT22;8231;50.866;7.944;2022-12-29T08:31:33;9.30;99.90
16247;DHT22;8231;50.866;7.944;2022-12-29T08:34:01;9.30;99.90
16247;DHT22;8231;50.866;7.944;2022-12-29T08:36:31;9.40;99.90
16247;DHT22;8231;50.866;7.944;2022-12-29T08:38:59;9.30;99.90
16247;DHT22;8231;50.866;7.944;2022-12-29T08:41:27;9.30;99.90
16247;DHT22;8231;50.866;7.944;2022-12-29T08:43:55;9.30;99.90
16247;DHT22;8231;50.866;7.944;2022-12-29T08:46:25;9.40;99.90
16247;DHT22;8231;50.866;7.944;2022-12-29T08:48:53;9.40;99.90
16247;DHT22;8231;50.866;7.944;2022-12-29T08:51:21;9.50;99.90
16247;DHT22;8231;50.866;7.944;2022-12-29T08:53:51;9.40;99.90
16247;DHT22;8231;50.866;7.944;2022-12-29T08:56:20;9.40;99.90
16247;DHT22;8231;50.866;7.944;2022-12-29T08:58:53;9.50;99.90
16247;DHT22;8231;50.866;7.944;2022-12-29T09:01:22;9.60;99.90
16247;DHT22;8231;50.866;7.944;2022-12-29T09:03:53;9.70;99.90
16247;DHT22;8231;50.866;7.944;2022-12-29T09:06:41;9.80;99.90
16247;DHT22;8231;50.866;7.944;2022-12-29T09:09:09;9.80;99.90
16247;DHT22;8231;50.866;7.944;2022-12-29T09:11:37;9.90;99.90
16247;DHT22;8231;50.866;7.944;2022-12-29T09:14:05;9.90;99.90
16247;DHT22;8231;50.866;7.944;2022-12-29T09:16:34;9.90;99.90
16247;DHT22;8231;50.866;7.944;2022-12-29T09:19:04;9.80;99.90
16247;DHT22;8231;50.866;7.944;2022-12-29T09:21:33;9.90;99.90
16247;DHT22;8231;50.866;7.944;2022-12-29T09:24:01;9.80;99.90
16247;DHT22;8231;50.866;7.944;2022-12-29T09:26:29;9.80;99.90
16247;DHT22;8231;50.866;7.944;2022-12-29T09:28:57;9.70;99.90
16247;DHT22;8231;50.866;7.944;2022-12-29T09:31:25;9.70;99.90
16247;DHT22;8231;50.866;7.944;2022-12-29T09:33:53;9.70;99.90
16247;DHT22;8231;50.866;7.944;2022-12-29T09:36:23;9.70;99.90
16247;DHT22;8231;50.866;7.944;2022-12-29T09:38:52;9.70;99.90
16247;DHT22;8231;50.866;7.944;2022-12-29T09:41:26;9.70;99.90
16247;DHT22;8231;50.866;7.944;2022-12-29T09:44:07;9.70;99.90
16247;DHT22;8231;50.866;7.944;2022-12-29T09:46:39;9.70;99.90
16247;DHT22;8231;50.866;7.944;2022-12-29T09:49:15;9.60;99.90
16247;DHT22;8231;50.866;7.944;2022-12-29T09:51:48;9.60;99.90
16247;DHT22;8231;50.866;7.944;2022-12-29T09:54:40;9.60;99.90
16247;DHT22;8231;50.866;7.944;2022-12-29T09:57:17;9.60;99.90
16247;DHT22;8231;50.866;7.944;2022-12-29T09:59:49;9.60;99.90
16247;DHT22;8231;50.866;7.944;2022-12-29T10:02:36;9.50;99.90
16247;DHT22;8231;50.866;7.944;2022-12-29T10:05:14;9.50;99.90
16247;DHT22;8231;50.866;7.944;2022-12-29T10:07:50;9.50;99.90
16247;DHT22;8231;50.866;7.944;2022-12-29T10:10:30;9.60;99.90
16247;DHT22;8231;50.866;7.944;2022-12-29T10:13:07;9.60;99.90
16247;DHT22;8231;50.866;7.944;2022-12-29T10:15:52;9.60;99.90
16247;DHT22;8231;50.866;7.944;2022-12-29T10:18:43;9.60;99.90
16247;DHT22;8231;50.866;7.944;2022-12-29T10:21:18;9.60;99.90
16247;DHT22;8231;50.866;7.944;2022-12-29T10:23:51;9.70;99.90
16247;DHT22;8231;50.866;7.944;2022-12-29T10:26:22;9.70;99.90
16247;DHT22;8231;50.866;7.944;2022-12-29T10:28:53;9.60;99.90
16247;DHT22;8231;50.866;7.944;2022-12-29T10:31:24;9.70;99.90
16247;DHT22;8231;50.866;7.944;2022-12-29T10:33:57;9.80;99.90
16247;DHT22;8231;50.866;7.944;2022-12-29T10:36:33;9.80;99.90
16247;DHT22;8231;50.866;7.944;2022-12-29T10:39:10;9.80;99.90
16247;DHT22;8231;50.866;7.944;2022-12-29T10:41:43;9.90;99.90
16247;DHT22;8231;50.866;7.944;2022-12-29T10:44:15;9.80;99.90
16247;DHT22;8231;50.866;7.944;2022-12-29T10:46:54;10.00;99.90
16247;DHT22;8231;50.866;7.944;2022-12-29T10:49:25;10.00;99.90
16247;DHT22;8231;50.866;7.944;2022-12-29T10:51:56;10.10;99.90
16247;DHT22;8231;50.866;7.944;2022-12-29T10:54:32;10.10;99.90
16247;DHT22;8231;50.866;7.944;2022-12-29T10:57:04;10.10;99.90
16247;DHT22;8231;50.866;7.944;2022-12-29T10:59:36;10.10;99.90
16247;DHT22;8231;50.866;7.944;2022-12-29T11:02:18;10.10;99.90
16247;DHT22;8231;50.866;7.944;2022-12-29T11:04:55;10.10;99.90
16247;DHT22;8231;50.866;7.944;2022-12-29T11:07:25;10.10;99.90
16247;DHT22;8231;50.866;7.944;2022-12-29T11:09:55;10.20;99.90
16247;DHT22;8231;50.866;7.944;2022-12-29T11:12:25;10.10;99.90
16247;DHT22;8231;50.866;7.944;2022-12-29T11:15:12;10.30;99.90
16247;DHT22;8231;50.866;7.944;2022-12-29T11:17:45;10.10;99.90
16247;DHT22;8231;50.866;7.944;2022-12-29T11:20:31;10.10;99.90
16247;DHT22;8231;50.866;7.944;2022-12-29T11:23:01;10.10;99.90
16247;DHT22;8231;50.866;7.944;2022-12-29T11:25:31;10.10;99.90
16247;DHT22;8231;50.866;7.944;2022-12-29T11:28:02;10.10;99.90
16247;DHT22;8231;50.866;7.944;2022-12-29T11:30:32;10.10;99.90
16247;DHT22;8231;50.866;7.944;2022-12-29T11:33:03;10.10;99.90
16247;DHT22;8231;50.866;7.944;2022-12-29T11:35:35;10.00;99.90
16247;DHT22;8231;50.866;7.944;2022-12-29T11:38:18;9.90;99.90
16247;DHT22;8231;50.866;7.944;2022-12-29T11:40:49;9.90;99.90
16247;DHT22;8231;50.866;7.944;2022-12-29T11:43:21;9.90;99.90
16247;DHT22;8231;50.866;7.944;2022-12-29T11:45:52;9.90;99.90
16247;DHT22;8231;50.866;7.944;2022-12-29T11:48:21;9.90;99.90
16247;DHT22;8231;50.866;7.944;2022-12-29T11:50:51;10.00;99.90
16247;DHT22;8231;50.866;7.944;2022-12-29T11:53:22;10.00;99.90
16247;DHT22;8231;50.866;7.944;2022-12-29T11:55:54;9.90;99.90
16247;DHT22;8231;50.866;7.944;2022-12-29T11:58:29;9.90;99.90
16247;DHT22;8231;50.866;7.944;2022-12-29T12:01:02;10.10;99.90
16247;DHT22;8231;50.866;7.944;2022-12-29T12:03:34;10.10;99.90
16247;DHT22;8231;50.866;7.944;2022-12-29T12:06:07;10.10;99.90
16247;DHT22;8231;50.866;7.944;2022-12-29T12:08:41;10.10;99.90
16247;DHT22;8231;50.866;7.944;2022-12-29T12:11:15;10.10;99.90
16247;DHT22;8231;50.866;7.944;2022-12-29T12:13:51;10.10;99.90
16247;DHT22;8231;50.866;7.944;2022-12-29T12:16:30;10.10;99.90
16247;DHT22;8231;50.866;7.944;2022-12-29T12:19:04;10.10;99.90
16247;DHT22;8231;50.866;7.944;2022-12-29T12:21:41;10.10;99.90
16247;DHT22;8231;50.866;7.944;2022-12-29T12:24:34;10.10;99.90
16247;DHT22;8231;50.866;7.944;2022-12-29T12:27:11;10.20;99.90
16247;DHT22;8231;50.866;7.944;2022-12-29T12:29:45;10.20;99.90
16247;DHT22;8231;50.866;7.944;2022-12-29T12:32:19;10.20;99.90
16247;DHT22;8231;50.866;7.944;2022-12-29T12:34:49;10.20;99.90
16247;DHT22;8231;50.866;7.944;2022-12-29T12:37:32;10.10;99.90
16247;DHT22;8231;50.866;7.944;2022-12-29T12:40:25;10.00;99.90
16247;DHT22;8231;50.866;7.944;2022-12-29T12:43:11;10.10;99.90
16247;DHT22;8231;50.866;7.944;2022-12-29T12:45:51;10.10;99.90
16247;DHT22;8231;50.866;7.944;2022-12-29T12:48:40;10.10;99.90
16247;DHT22;8231;50.866;7.944;2022-12-29T12:51:20;10.10;99.90
16247;DHT22;8231;50.866;7.944;2022-12-29T12:54:01;10.00;99.90
16247;DHT22;8231;50.866;7.944;2022-12-29T12:56:47;10.00;99.90
16247;DHT22;8231;50.866;7.944;2022-12-29T12:59:33;10.00;99.90
16247;DHT22;8231;50.866;7.944;2022-12-29T13:02:15;10.00;99.90
16247;DHT22;8231;50.866;7.944;2022-12-29T13:05:06;9.90;99.90
16247;DHT22;8231;50.866;7.944;2022-12-29T13:07:50;9.90;99.90
16247;DHT22;8231;50.866;7.944;2022-12-29T13:10:31;9.90;99.90
16247;DHT22;8231;50.866;7.944;2022-12-29T13:13:16;10.00;99.90
16247;DHT22;8231;50.866;7.944;2022-12-29T13:15:56;9.90;99.90
16247;DHT22;8231;50.866;7.944;2022-12-29T13:18:33;9.80;99.90
16247;DHT22;8231;50.866;7.944;2022-12-29T13:21:11;9.80;99.90
16247;DHT22;8231;50.866;7.944;2022-12-29T13:23:47;9.80;99.90
16247;DHT22;8231;50.866;7.944;2022-12-29T13:26:20;9.80;99.90
16247;DHT22;8231;50.866;7.944;2022-12-29T13:28:57;9.70;99.90
16247;DHT22;8231;50.866;7.944;2022-12-29T13:31:33;9.70;99.90
16247;DHT22;8231;50.866;7.944;2022-12-29T13:34:15;9.70;99.90
16247;DHT22;8231;50.866;7.944;2022-12-29T13:36:49;9.80;99.90
16247;DHT22;8231;50.866;7.944;2022-12-29T13:39:21;9.70;99.90
16247;DHT22;8231;50.866;7.944;2022-12-29T13:41:52;9.70;99.90
16247;DHT22;8231;50.866;7.944;2022-12-29T13:44:23;9.70;99.90
16247;DHT22;8231;50.866;7.944;2022-12-29T13:47:01;9.70;99.90
16247;DHT22;8231;50.866;7.944;2022-12-29T13:49:30;9.70;99.90
16247;DHT22;8231;50.866;7.944;2022-12-29T13:52:09;9.70;99.90
16247;DHT22;8231;50.866;7.944;2022-12-29T13:54:44;9.70;99.90
16247;DHT22;8231;50.866;7.944;2022-12-29T13:57:27;9.70;99.90
16247;DHT22;8231;50.866;7.944;2022-12-29T14:00:00;9.70;99.90
16247;DHT22;8231;50.866;7.944;2022-12-29T14:02:46;9.80;99.90
16247;DHT22;8231;50.866;7.944;2022-12-29T14:05:30;9.70;99.90
16247;DHT22;8231;50.866;7.944;2022-12-29T14:08:00;9.70;99.90
16247;DHT22;8231;50.866;7.944;2022-12-29T14:10:32;9.60;99.90
16247;DHT22;8231;50.866;7.944;2022-12-29T14:13:04;9.60;99.90
16247;DHT22;8231;50.866;7.944;2022-12-29T14:15:38;9.50;99.90
16247;DHT22;8231;50.866;7.944;2022-12-29T14:18:15;9.60;99.90
16247;DHT22;8231;50.866;7.944;2022-12-29T14:20:52;9.60;99.90
16247;DHT22;8231;50.866;7.944;2022-12-29T14:23:34;9.60;99.90
16247;DHT22;8231;50.866;7.944;2022-12-29T14:26:15;9.60;99.90
16247;DHT22;8231;50.866;7.944;2022-12-29T14:28:45;9.60;99.90
16247;DHT22;8231;50.866;7.944;2022-12-29T14:31:33;9.50;99.90
16247;DHT22;8231;50.866;7.944;2022-12-29T14:34:27;9.50;99.90
16247;DHT22;8231;50.866;7.944;2022-12-29T14:36:57;9.50;99.90
16247;DHT22;8231;50.866;7.944;2022-12-29T14:39:36;9.50;99.90
16247;DHT22;8231;50.866;7.944;2022-12-29T14:42:10;9.50;99.90
16247;DHT22;8231;50.866;7.944;2022-12-29T14:44:47;9.60;99.90
16247;DHT22;8231;50.866;7.944;2022-12-29T14:47:19;9.50;99.90
16247;DHT22;8231;50.866;7.944;2022-12-29T14:49:49;9.50;99.90
16247;DHT22;8231;50.866;7.944;2022-12-29T14:52:20;9.40;99.90
16247;DHT22;8231;50.866;7.944;2022-12-29T14:54:51;9.30;99.90
16247;DHT22;8231;50.866;7.944;2022-12-29T14:57:35;9.20;99.90
16247;DHT22;8231;50.866;7.944;2022-12-29T15:00:12;9.20;99.90
16247;DHT22;8231;50.866;7.944;2022-12-29T15:02:46;9.00;99.90
16247;DHT22;8231;50.866;7.944;2022-12-29T15:05:31;9.00;99.90
16247;DHT22;8231;50.866;7.944;2022-12-29T15:08:01;9.00;99.90
16247;DHT22;8231;50.866;7.944;2022-12-29T15:10:36;8.90;99.90
16247;DHT22;8231;50.866;7.944;2022-12-29T15:13:14;8.90;99.90
16247;DHT22;8231;50.866;7.944;2022-12-29T15:15:42;8.80;99.90
16247;DHT22;8231;50.866;7.944;2022-12-29T15:18:25;8.80;99.90
16247;DHT22;8231;50.866;7.944;2022-12-29T15:20:56;8.80;99.90
16247;DHT22;8231;50.866;7.944;2022-12-29T15:23:26;8.80;99.90
16247;DHT22;8231;50.866;7.944;2022-12-29T15:25:56;8.80;99.90
16247;DHT22;8231;50.866;7.944;2022-12-29T15:28:27;8.70;99.90
16247;DHT22;8231;50.866;7.944;2022-12-29T15:30:57;8.70;99.90
16247;DHT22;8231;50.866;7.944;2022-12-29T15:33:29;8.60;99.90
16247;DHT22;8231;50.866;7.944;2022-12-29T15:36:03;8.70;99.90
16247;DHT22;8231;50.866;7.944;2022-12-29T15:38:31;8.60;99.90
16247;DHT22;8231;50.866;7.944;2022-12-29T15:41:16;8.60;99.90
16247;DHT22;8231;50.866;7.944;2022-12-29T15:43:53;8.70;99.90
16247;DHT22;8231;50.866;7.944;2022-12-29T15:46:25;8.70;99.90
16247;DHT22;8231;50.866;7.944;2022-12-29T15:48:54;8.70;99.90
16247;DHT22;8231;50.866;7.944;2022-12-29T15:51:28;8.70;99.90
16247;DHT22;8231;50.866;7.944;2022-12-29T15:53:57;8.80;99.90
16247;DHT22;8231;50.866;7.944;2022-12-29T15:56:28;8.70;99.90
16247;DHT22;8231;50.866;7.944;2022-12-29T15:58:57;8.80;99.90
16247;DHT22;8231;50.866;7.944;2022-12-29T16:01:29;8.70;99.90
16247;DHT22;8231;50.866;7.944;2022-12-29T16:03:59;8.70;99.90
16247;DHT22;8231;50.866;7.944;2022-12-29T16:06:32;8.70;99.90
16247;DHT22;8231;50.866;7.944;2022-12-29T16:09:02;8.70;99.90
16247;DHT22;8231;50.866;7.944;2022-12-29T16:11:34;8.70;99.90
16247;DHT22;8231;50.866;7.944;2022-12-29T16:14:06;8.60;99.90
16247;DHT22;8231;50.866;7.944;2022-12-29T16:16:38;8.60;99.90
16247;DHT22;8231;50.866;7.944;2022-12-29T16:19:13;8.70;99.90
16247;DHT22;8231;50.866;7.944;2022-12-29T16:21:43;8.60;99.90
16247;DHT22;8231;50.866;7.944;2022-12-29T16:24:14;8.50;99.90
16247;DHT22;8231;50.866;7.944;2022-12-29T16:26:48;8.50;99.90
16247;DHT22;8231;50.866;7.944;2022-12-29T16:29:19;8.40;99.90
16247;DHT22;8231;50.866;7.944;2022-12-29T16:31:51;8.30;99.90
16247;DHT22;8231;50.866;7.944;2022-12-29T16:34:24;8.20;99.90
16247;DHT22;8231;50.866;7.944;2022-12-29T16:36:55;8.20;99.90
16247;DHT22;8231;50.866;7.944;2022-12-29T16:39:27;8.10;99.90
16247;DHT22;8231;50.866;7.944;2022-12-29T16:41:56;8.00;99.90